createdAt,value
2019-01-24T00:00:15.670Z,70.70
2019-01-24T00:01:15.797Z,70.50
2019-01-24T00:02:15.917Z,66.80
2019-01-24T00:03:16.035Z,69.00
2019-01-24T00:04:16.924Z,70.50
2019-01-24T00:05:16.287Z,70.00
2019-01-24T00:06:16.407Z,70.60
2019-01-24T00:07:16.538Z,70.70
2019-01-24T00:08:16.666Z,71.00
2019-01-24T00:09:16.784Z,69.80
2019-01-24T00:10:16.915Z,71.90
2019-01-24T00:11:17.038Z,71.10
2019-01-24T00:12:17.162Z,71.50
2019-01-24T00:13:17.289Z,72.80
2019-01-24T00:14:17.495Z,71.70
2019-01-24T00:15:17.576Z,73.90
2019-01-24T00:16:17.768Z,74.80
2019-01-24T00:17:17.829Z,73.30
2019-01-24T00:18:18.021Z,73.10
2019-01-24T00:19:18.097Z,72.90
2019-01-24T00:20:18.223Z,73.70
2019-01-24T00:21:18.344Z,75.00
2019-01-24T00:22:18.479Z,72.40
2019-01-24T00:23:18.596Z,71.80
2019-01-24T00:24:18.724Z,72.80
2019-01-24T00:25:18.847Z,72.90
2019-01-24T00:26:18.979Z,72.70
2019-01-24T00:27:19.093Z,72.30
2019-01-24T00:28:19.231Z,72.10
2019-01-24T00:29:19.356Z,72.80
2019-01-24T00:30:19.518Z,72.10
2019-01-24T00:31:19.638Z,73.00
2019-01-24T00:32:19.768Z,71.90
2019-01-24T00:33:19.892Z,74.70
2019-01-24T00:34:23.294Z,74.60
2019-01-24T00:35:20.172Z,78.10
2019-01-24T00:36:20.294Z,76.50
2019-01-24T00:37:20.425Z,75.90
2019-01-24T00:38:20.553Z,75.30
2019-01-24T00:39:20.687Z,78.00
2019-01-24T00:40:20.813Z,77.90
2019-01-24T00:41:20.957Z,74.90
2019-01-24T00:42:21.076Z,77.50
2019-01-24T00:43:21.224Z,75.70
2019-01-24T00:44:21.345Z,76.00
2019-01-24T00:45:21.466Z,75.60
2019-01-24T00:46:21.588Z,74.80
2019-01-24T00:47:21.735Z,73.20
2019-01-24T00:48:21.856Z,75.40
2019-01-24T00:49:21.984Z,72.60
2019-01-24T00:50:22.103Z,75.40
2019-01-24T00:51:22.243Z,73.60
2019-01-24T00:52:22.370Z,73.90
2019-01-24T00:53:22.485Z,75.40
2019-01-24T00:54:22.612Z,73.00
2019-01-24T00:55:22.747Z,73.10
2019-01-24T00:56:22.892Z,71.90
2019-01-24T00:57:23.011Z,71.40
2019-01-24T00:58:23.141Z,70.80
2019-01-24T00:59:23.269Z,70.00
2019-01-24T01:00:23.425Z,70.60
2019-01-24T01:01:23.557Z,71.00
2019-01-24T01:02:23.680Z,69.90
2019-01-24T01:03:23.822Z,68.20
2019-01-24T01:04:29.597Z,68.50
2019-01-24T01:05:24.069Z,68.00
2019-01-24T01:06:24.192Z,68.10
2019-01-24T01:07:24.359Z,70.60
2019-01-24T01:08:24.483Z,69.10
2019-01-24T01:09:24.604Z,70.50
2019-01-24T01:10:24.724Z,67.90
2019-01-24T01:11:24.880Z,68.00
2019-01-24T01:12:25.000Z,67.00
2019-01-24T01:13:25.124Z,66.60
2019-01-24T01:14:25.244Z,65.00
2019-01-24T01:15:25.396Z,66.40
2019-01-24T01:16:25.519Z,66.20
2019-01-24T01:17:25.647Z,66.50
2019-01-24T01:18:25.810Z,66.60
2019-01-24T01:19:25.968Z,65.30
2019-01-24T01:20:26.079Z,66.90
2019-01-24T01:21:26.211Z,67.90
2019-01-24T01:22:26.333Z,66.70
2019-01-24T01:23:26.501Z,66.70
2019-01-24T01:24:26.660Z,68.10
2019-01-24T01:25:26.785Z,65.70
2019-01-24T01:26:26.919Z,69.10
2019-01-24T01:27:27.080Z,68.10
2019-01-24T01:28:27.202Z,67.90
2019-01-24T01:29:27.329Z,69.70
2019-01-24T01:30:27.449Z,70.30
2019-01-24T01:31:27.610Z,69.70
2019-01-24T01:32:27.722Z,70.60
2019-01-24T01:33:27.849Z,70.10
2019-01-24T01:34:27.980Z,72.40
2019-01-24T01:35:28.114Z,69.40
2019-01-24T01:36:28.238Z,70.10
2019-01-24T01:37:28.358Z,67.60
2019-01-24T01:38:28.486Z,71.30
2019-01-24T01:39:28.618Z,68.90
2019-01-24T01:40:28.741Z,69.70
2019-01-24T01:41:28.867Z,66.90
2019-01-24T01:42:28.990Z,68.10
2019-01-24T01:43:29.125Z,67.70
2019-01-24T01:44:29.356Z,67.10
2019-01-24T01:45:29.362Z,68.80
2019-01-24T01:46:29.480Z,67.70
2019-01-24T01:47:29.632Z,64.50
2019-01-24T01:48:29.751Z,65.00
2019-01-24T01:49:29.878Z,64.60
2019-01-24T01:50:30.004Z,65.40
2019-01-24T01:51:30.164Z,65.10
2019-01-24T01:52:30.284Z,64.50
2019-01-24T01:53:30.409Z,62.90
2019-01-24T01:54:30.537Z,62.80
2019-01-24T01:55:30.686Z,63.90
2019-01-24T01:56:30.808Z,64.40
2019-01-24T01:57:30.934Z,63.40
2019-01-24T01:58:31.106Z,62.60
2019-01-24T01:59:31.263Z,63.30
2019-01-24T02:00:31.414Z,62.10
2019-01-24T02:01:31.541Z,61.40
2019-01-24T02:02:31.662Z,62.60
2019-01-24T02:03:31.797Z,60.50
2019-01-24T02:04:31.923Z,60.10
2019-01-24T02:05:32.050Z,60.80
2019-01-24T02:06:32.175Z,61.90
2019-01-24T02:07:32.342Z,60.90
2019-01-24T02:08:32.464Z,64.10
2019-01-24T02:09:32.592Z,60.80
2019-01-24T02:10:32.720Z,60.90
2019-01-24T02:11:32.854Z,62.10
2019-01-24T02:12:33.031Z,61.60
2019-01-24T02:13:33.155Z,61.40
2019-01-24T02:14:33.277Z,63.90
2019-01-24T02:15:33.413Z,66.80
2019-01-24T02:16:33.563Z,66.10
2019-01-24T02:17:33.690Z,65.20
2019-01-24T02:18:33.812Z,68.10
2019-01-24T02:19:34.009Z,67.80
2019-01-24T02:20:34.079Z,68.80
2019-01-24T02:21:34.211Z,67.70
2019-01-24T02:22:34.332Z,69.20
2019-01-24T02:23:34.465Z,67.00
2019-01-24T02:24:34.588Z,69.90
2019-01-24T02:25:34.710Z,66.90
2019-01-24T02:26:34.830Z,62.20
2019-01-24T02:27:35.037Z,62.10
2019-01-24T02:28:35.082Z,68.30
2019-01-24T02:29:35.209Z,69.50
2019-01-24T02:30:35.332Z,69.00
2019-01-24T02:31:35.461Z,59.10
2019-01-24T02:32:35.581Z,60.40
2019-01-24T02:33:35.704Z,62.40
2019-01-24T02:34:35.831Z,58.60
2019-01-24T02:35:35.969Z,58.90
2019-01-24T02:36:36.160Z,58.80
2019-01-24T02:37:36.160Z,58.20
2019-01-24T02:38:36.284Z,57.10
2019-01-24T02:39:36.420Z,54.10
2019-01-24T02:40:36.538Z,52.60
2019-01-24T02:41:36.689Z,54.40
2019-01-24T02:42:36.831Z,59.20
2019-01-24T02:43:36.973Z,59.70
2019-01-24T02:44:37.084Z,60.70
2019-01-24T02:45:37.206Z,61.60
2019-01-24T02:46:37.338Z,61.50
2019-01-24T02:47:37.480Z,61.40
2019-01-24T02:48:37.601Z,58.90
2019-01-24T02:49:37.719Z,55.40
2019-01-24T02:50:37.838Z,57.40
2019-01-24T02:51:37.976Z,63.30
2019-01-24T02:52:38.098Z,63.90
2019-01-24T02:53:38.223Z,61.90
2019-01-24T02:54:38.343Z,57.40
2019-01-24T02:55:38.505Z,58.40
2019-01-24T02:56:38.654Z,64.30
2019-01-24T02:57:38.778Z,62.10
2019-01-24T02:58:38.904Z,62.90
2019-01-24T02:59:39.050Z,57.30
2019-01-24T03:00:39.187Z,57.60
2019-01-24T03:01:39.834Z,58.60
2019-01-24T03:04:11.296Z,56.40
2019-01-24T03:05:11.436Z,57.60
2019-01-24T03:06:11.582Z,63.60
2019-01-24T03:07:11.702Z,57.40
2019-01-24T03:08:11.820Z,57.70
2019-01-24T03:09:11.966Z,61.00
2019-01-24T03:10:12.085Z,55.10
2019-01-24T03:11:12.205Z,55.80
2019-01-24T03:12:12.354Z,56.40
2019-01-24T03:13:12.546Z,61.60
2019-01-24T03:14:12.545Z,55.70
2019-01-24T03:15:12.668Z,56.30
2019-01-24T03:16:12.808Z,57.50
2019-01-24T03:17:12.931Z,65.30
2019-01-24T03:18:13.057Z,63.30
2019-01-24T03:19:13.176Z,63.90
2019-01-24T03:20:13.301Z,57.60
2019-01-24T03:21:13.426Z,57.50
2019-01-24T03:22:13.546Z,58.70
2019-01-24T03:23:14.570Z,60.60
2019-01-24T03:24:13.808Z,63.40
2019-01-24T03:25:13.940Z,62.50
2019-01-24T03:26:14.075Z,60.10
2019-01-24T03:27:14.203Z,57.00
2019-01-24T03:28:14.323Z,56.10
2019-01-24T03:29:14.446Z,61.30
2019-01-24T03:30:14.575Z,61.80
2019-01-24T03:31:14.712Z,56.60
2019-01-24T03:32:14.928Z,56.50
2019-01-24T03:33:14.941Z,58.50
2019-01-24T03:34:15.052Z,59.40
2019-01-24T03:35:15.216Z,59.80
2019-01-24T03:36:15.329Z,61.30
2019-01-24T03:37:15.455Z,57.20
2019-01-24T03:38:15.586Z,58.20
2019-01-24T03:39:15.729Z,52.70
2019-01-24T03:40:15.858Z,54.00
2019-01-24T03:41:15.979Z,53.20
2019-01-24T03:42:16.096Z,59.80
2019-01-24T03:43:16.217Z,57.00
2019-01-24T03:44:16.342Z,58.20
2019-01-24T03:45:16.502Z,60.40
2019-01-24T03:46:16.605Z,54.30
2019-01-24T03:47:16.737Z,53.80
2019-01-24T03:48:16.859Z,53.60
2019-01-24T03:49:16.987Z,59.30
2019-01-24T03:50:17.196Z,59.10
2019-01-24T03:51:17.200Z,58.80
2019-01-24T03:52:17.322Z,59.80
2019-01-24T03:53:17.449Z,55.50
2019-01-24T03:54:17.652Z,56.30
2019-01-24T03:55:17.638Z,61.80
2019-01-24T03:56:17.762Z,61.70
2019-01-24T03:57:17.893Z,55.30
2019-01-24T03:58:18.005Z,55.10
2019-01-24T03:59:18.133Z,58.90
2019-01-24T04:00:18.254Z,59.00
2019-01-24T04:01:18.400Z,61.60
2019-01-24T04:02:18.522Z,60.80
2019-01-24T04:03:18.644Z,55.80
2019-01-24T04:04:18.771Z,53.10
2019-01-24T04:05:18.901Z,58.10
2019-01-24T04:06:19.025Z,58.30
2019-01-24T04:07:19.150Z,54.20
2019-01-24T04:08:19.275Z,54.00
2019-01-24T04:09:19.416Z,60.40
2019-01-24T04:10:19.573Z,59.10
2019-01-24T04:11:19.665Z,60.80
2019-01-24T04:12:19.783Z,56.60
2019-01-24T04:13:19.933Z,56.60
2019-01-24T04:14:20.061Z,62.50
2019-01-24T04:15:20.223Z,61.90
2019-01-24T04:16:20.318Z,56.50
2019-01-24T04:17:21.403Z,55.90
2019-01-24T04:18:20.583Z,55.10
2019-01-24T04:19:20.708Z,61.30
2019-01-24T04:20:20.828Z,55.10
2019-01-24T04:21:20.964Z,55.40
2019-01-24T04:22:21.081Z,61.20
2019-01-24T04:23:21.208Z,57.30
2019-01-24T04:24:21.331Z,56.60
2019-01-24T04:25:21.465Z,58.90
2019-01-24T04:26:21.583Z,61.70
2019-01-24T04:27:21.711Z,55.50
2019-01-24T04:28:21.834Z,56.40
2019-01-24T04:29:21.975Z,59.30
2019-01-24T04:30:22.091Z,63.90
2019-01-24T04:31:22.213Z,57.10
2019-01-24T04:32:22.339Z,56.70
2019-01-24T04:33:22.514Z,62.30
2019-01-24T04:34:22.625Z,58.30
2019-01-24T04:35:22.751Z,57.40
2019-01-24T04:36:22.879Z,60.70
2019-01-24T04:37:23.016Z,64.90
2019-01-24T04:38:23.130Z,59.00
2019-01-24T04:39:23.261Z,58.30
2019-01-24T04:40:23.382Z,62.40
2019-01-24T04:41:23.534Z,61.40
2019-01-24T04:42:23.666Z,56.40
2019-01-24T04:43:23.791Z,57.60
2019-01-24T04:44:23.913Z,63.20
2019-01-24T04:45:24.048Z,57.60
2019-01-24T04:46:24.231Z,57.00
2019-01-24T04:47:24.232Z,62.50
2019-01-24T04:48:24.358Z,61.80
2019-01-24T04:49:24.510Z,56.40
2019-01-24T04:50:24.673Z,56.40
2019-01-24T04:51:24.793Z,60.50
2019-01-24T04:52:24.923Z,59.90
2019-01-24T04:53:25.066Z,58.70
2019-01-24T04:54:25.198Z,55.70
2019-01-24T04:55:25.309Z,53.20
2019-01-24T04:56:25.464Z,55.50
2019-01-24T04:57:25.601Z,57.80
2019-01-24T04:58:25.718Z,59.40
2019-01-24T04:59:25.855Z,57.90
2019-01-24T05:00:25.974Z,59.30
2019-01-24T05:01:26.102Z,57.40
2019-01-24T05:02:26.289Z,59.00
2019-01-24T05:03:26.285Z,57.00
2019-01-24T05:04:26.413Z,57.90
2019-01-24T05:05:27.903Z,58.70
2019-01-24T05:06:26.722Z,58.20
2019-01-24T05:07:26.844Z,58.70
2019-01-24T05:08:26.966Z,53.30
2019-01-24T05:09:27.116Z,57.10
2019-01-24T05:10:27.270Z,57.50
2019-01-24T05:11:27.371Z,58.20
2019-01-24T05:12:27.489Z,58.30
2019-01-24T05:13:27.684Z,59.40
2019-01-24T05:14:27.680Z,59.40
2019-01-24T05:15:27.806Z,57.80
2019-01-24T05:16:27.923Z,56.50
2019-01-24T05:17:28.082Z,57.90
2019-01-24T05:18:28.233Z,56.50
2019-01-24T05:19:28.360Z,58.90
2019-01-24T05:20:28.487Z,57.90
2019-01-24T05:21:28.626Z,57.70
2019-01-24T05:22:28.748Z,57.30
2019-01-24T05:23:28.869Z,56.50
2019-01-24T05:24:28.998Z,52.10
2019-01-24T05:25:29.182Z,56.00
2019-01-24T05:26:29.314Z,58.00
2019-01-24T05:27:30.775Z,57.30
2019-01-24T05:28:29.558Z,58.80
2019-01-24T05:29:29.728Z,57.70
2019-01-24T05:30:29.956Z,51.80
2019-01-24T05:31:29.951Z,59.30
2019-01-24T05:32:30.078Z,58.10
2019-01-24T05:33:30.243Z,59.20
2019-01-24T05:34:30.367Z,57.70
2019-01-24T05:35:34.652Z,59.00
2019-01-24T05:36:30.618Z,58.70
2019-01-24T05:37:30.769Z,53.10
2019-01-24T05:38:30.882Z,57.10
2019-01-24T05:39:31.009Z,59.40
2019-01-24T05:40:31.130Z,58.70
2019-01-24T05:41:31.294Z,60.00
2019-01-24T05:44:10.455Z,54.80
2019-01-24T05:45:03.327Z,55.00
2019-01-24T05:46:03.448Z,61.10
2019-01-24T05:47:03.578Z,61.00
2019-01-24T05:48:03.704Z,57.30
2019-01-24T05:49:03.826Z,62.60
2019-01-24T05:50:03.953Z,62.50
2019-01-24T05:51:04.189Z,62.50
2019-01-24T05:52:04.185Z,56.20
2019-01-24T05:53:04.316Z,56.20
2019-01-24T05:54:04.456Z,60.60
2019-01-24T05:55:04.575Z,56.90
2019-01-24T05:56:04.699Z,61.90
2019-01-24T05:57:04.818Z,54.80
2019-01-24T05:58:04.967Z,61.30
2019-01-24T05:59:05.086Z,61.50
2019-01-24T06:00:05.208Z,61.10
2019-01-24T06:01:05.374Z,60.00
2019-01-24T06:02:05.535Z,59.30
2019-01-24T06:03:05.705Z,60.40
2019-01-24T06:04:05.903Z,59.40
2019-01-24T06:05:05.904Z,58.90
2019-01-24T06:06:06.046Z,59.20
2019-01-24T06:07:06.245Z,58.20
2019-01-24T06:08:06.245Z,56.90
2019-01-24T06:09:06.366Z,57.70
2019-01-24T06:10:06.541Z,57.30
2019-01-24T06:11:06.662Z,56.10
2019-01-24T06:12:06.790Z,57.40
2019-01-24T06:13:06.913Z,56.80
2019-01-24T06:14:07.050Z,56.20
2019-01-24T06:15:07.175Z,57.40
2019-01-24T06:16:07.383Z,56.60
2019-01-24T06:17:07.436Z,56.50
2019-01-24T06:18:07.579Z,56.60
2019-01-24T06:19:07.754Z,56.00
2019-01-24T06:20:07.882Z,55.90
2019-01-24T06:21:08.065Z,56.20
2019-01-24T06:22:08.124Z,58.00
2019-01-24T06:23:08.204Z,56.80
2019-01-24T06:24:08.326Z,57.00
2019-01-24T06:25:08.453Z,57.00
2019-01-24T06:26:08.592Z,57.50
2019-01-24T06:27:08.760Z,57.20
2019-01-24T06:28:08.854Z,56.50
2019-01-24T06:29:08.981Z,58.20
2019-01-24T06:30:09.130Z,56.60
2019-01-24T06:31:09.256Z,55.80
2019-01-24T06:32:09.377Z,56.20
2019-01-24T06:33:09.504Z,58.20
2019-01-24T06:34:09.634Z,56.00
2019-01-24T06:35:09.763Z,56.90
2019-01-24T06:36:09.889Z,56.80
2019-01-24T06:37:10.007Z,55.10
2019-01-24T06:38:10.157Z,58.70
2019-01-24T06:39:10.347Z,56.80
2019-01-24T06:40:10.351Z,58.40
2019-01-24T06:41:10.476Z,58.50
2019-01-24T06:42:10.638Z,56.60
2019-01-24T06:43:10.751Z,56.30
2019-01-24T06:44:10.873Z,57.80
2019-01-24T06:45:10.999Z,57.50
2019-01-24T06:46:11.131Z,58.20
2019-01-24T06:47:11.324Z,58.10
2019-01-24T06:48:11.327Z,57.50
2019-01-24T06:49:11.468Z,57.60
2019-01-24T06:50:11.607Z,56.30
2019-01-24T06:51:11.737Z,57.40
2019-01-24T06:52:11.897Z,58.00
2019-01-24T06:53:11.987Z,57.10
2019-01-24T06:54:12.150Z,58.00
2019-01-24T06:55:12.256Z,56.20
2019-01-24T06:56:12.406Z,56.60
2019-01-24T06:57:12.532Z,57.50
2019-01-24T06:58:12.656Z,56.60
2019-01-24T06:59:12.783Z,56.00
2019-01-24T07:00:12.935Z,57.20
2019-01-24T07:01:13.040Z,56.00
2019-01-24T07:02:13.165Z,58.50
2019-01-24T07:03:13.286Z,57.80
2019-01-24T07:04:13.410Z,57.00
2019-01-24T07:05:13.531Z,54.60
2019-01-24T07:06:14.205Z,56.20
2019-01-24T07:07:13.888Z,55.50
2019-01-24T07:08:14.044Z,57.20
2019-01-24T07:09:14.137Z,54.90
2019-01-24T07:10:14.260Z,56.20
2019-01-24T07:11:14.402Z,55.70
2019-01-24T07:12:14.515Z,57.80
2019-01-24T07:13:14.646Z,56.70
2019-01-24T07:14:14.767Z,55.40
2019-01-24T07:15:14.894Z,56.70
2019-01-24T07:16:15.015Z,59.10
2019-01-24T07:17:15.137Z,55.70
2019-01-24T07:18:15.262Z,56.60
2019-01-24T07:19:15.391Z,55.70
2019-01-24T07:20:15.512Z,57.30
2019-01-24T07:21:15.641Z,56.30
2019-01-24T07:22:15.775Z,56.10
2019-01-24T07:23:15.913Z,56.40
2019-01-24T07:24:16.036Z,57.30
2019-01-24T07:25:16.153Z,56.90
2019-01-24T07:26:16.323Z,55.60
2019-01-24T07:27:16.451Z,56.90
2019-01-24T07:28:16.587Z,58.60
2019-01-24T07:29:16.697Z,59.90
2019-01-24T07:30:16.845Z,60.50
2019-01-24T07:31:16.953Z,58.20
2019-01-24T07:32:17.082Z,60.00
2019-01-24T07:33:17.245Z,56.70
2019-01-24T07:34:17.384Z,56.60
2019-01-24T07:35:17.490Z,58.80
2019-01-24T07:36:17.686Z,56.70
2019-01-24T07:37:17.705Z,57.90
2019-01-24T07:38:17.823Z,57.30
2019-01-24T07:39:17.976Z,57.50
2019-01-24T07:40:18.069Z,57.00
2019-01-24T07:41:18.196Z,57.00
2019-01-24T07:42:18.320Z,55.80
2019-01-24T07:43:18.446Z,56.20
2019-01-24T07:44:18.566Z,56.30
2019-01-24T07:45:18.690Z,55.80
2019-01-24T07:46:18.811Z,56.40
2019-01-24T07:47:18.936Z,56.80
2019-01-24T07:48:19.057Z,57.40
2019-01-24T07:49:19.247Z,57.30
2019-01-24T07:50:19.388Z,57.10
2019-01-24T07:51:19.483Z,57.00
2019-01-24T07:52:19.622Z,57.40
2019-01-24T07:53:19.844Z,56.70
2019-01-24T07:54:19.918Z,57.60
2019-01-24T07:55:20.053Z,56.80
2019-01-24T07:56:20.210Z,55.80
2019-01-24T07:57:21.277Z,57.00
2019-01-24T07:58:20.463Z,56.90
2019-01-24T07:59:20.554Z,56.00
2019-01-24T08:00:20.799Z,55.60
2019-01-24T08:01:20.779Z,57.60
2019-01-24T08:02:20.921Z,55.60
2019-01-24T08:03:21.068Z,56.70
2019-01-24T08:04:21.187Z,59.10
2019-01-24T08:05:21.315Z,57.70
2019-01-24T08:06:21.438Z,57.40
2019-01-24T08:07:21.559Z,57.50
2019-01-24T08:08:21.694Z,56.60
2019-01-24T08:09:21.809Z,58.50
2019-01-24T08:10:21.931Z,58.80
2019-01-24T08:11:22.064Z,57.50
2019-01-24T08:12:22.220Z,59.40
2019-01-24T08:13:22.312Z,58.90
2019-01-24T08:14:22.443Z,58.90
2019-01-24T08:15:22.577Z,59.20
2019-01-24T08:16:22.693Z,59.50
2019-01-24T08:17:22.832Z,61.60
2019-01-24T08:18:22.968Z,61.10
2019-01-24T08:19:23.143Z,61.00
2019-01-24T08:20:23.174Z,61.20
2019-01-24T08:21:23.313Z,62.20
2019-01-24T08:22:23.438Z,60.90
2019-01-24T08:23:23.556Z,60.20
2019-01-24T08:24:23.698Z,61.60
2019-01-24T08:25:23.820Z,61.20
2019-01-24T08:26:23.945Z,60.90
2019-01-24T08:27:24.107Z,59.30
2019-01-24T08:28:24.205Z,60.70
2019-01-24T08:29:24.360Z,59.80
2019-01-24T08:30:24.467Z,58.60
2019-01-24T08:31:24.593Z,59.30
2019-01-24T08:32:24.726Z,58.00
2019-01-24T08:33:24.845Z,59.40
2019-01-24T08:34:24.998Z,57.80
2019-01-24T08:35:25.120Z,58.00
2019-01-24T08:36:25.244Z,58.80
2019-01-24T08:37:25.379Z,57.30
2019-01-24T08:38:25.506Z,58.10
2019-01-24T08:39:25.628Z,58.20
2019-01-24T08:40:25.749Z,58.40
2019-01-24T08:41:25.870Z,57.50
2019-01-24T08:42:25.999Z,57.00
2019-01-24T08:43:26.152Z,57.40
2019-01-24T08:44:26.289Z,55.60
2019-01-24T08:45:26.415Z,57.00
2019-01-24T08:46:26.663Z,57.20
2019-01-24T08:47:26.694Z,56.70
2019-01-24T08:48:26.856Z,56.40
2019-01-24T08:49:27.095Z,58.00
2019-01-24T08:50:27.165Z,55.90
2019-01-24T08:51:27.223Z,56.90
2019-01-24T08:52:27.346Z,57.70
2019-01-24T08:53:27.568Z,56.60
2019-01-24T08:54:27.717Z,57.00
2019-01-24T08:55:27.745Z,57.80
2019-01-24T08:56:27.869Z,58.40
2019-01-24T08:57:27.997Z,55.40
2019-01-24T08:58:28.116Z,56.30
2019-01-24T08:59:29.785Z,55.90
2019-01-24T09:00:28.375Z,56.70
2019-01-24T09:01:28.510Z,56.20
2019-01-24T09:02:28.661Z,57.10
2019-01-24T09:03:28.792Z,58.30
2019-01-24T09:04:28.912Z,59.20
2019-01-24T09:05:29.058Z,58.20
2019-01-24T09:06:29.182Z,58.10
2019-01-24T09:07:29.337Z,57.10
2019-01-24T09:08:29.428Z,57.60
2019-01-24T09:09:29.596Z,58.20
2019-01-24T09:10:29.719Z,56.70
2019-01-24T09:11:29.858Z,56.80
2019-01-24T09:12:30.496Z,58.10
2019-01-24T09:13:30.139Z,57.20
2019-01-24T09:14:30.420Z,58.70
2019-01-24T09:15:30.438Z,57.90
2019-01-24T09:16:30.578Z,55.40
2019-01-24T09:17:30.718Z,56.40
2019-01-24T09:18:30.835Z,57.70
2019-01-24T09:19:30.960Z,57.60
2019-01-24T09:20:31.088Z,57.30
2019-01-24T09:21:31.200Z,55.50
2019-01-24T09:22:31.329Z,56.60
2019-01-24T09:23:31.464Z,57.00
2019-01-24T09:24:31.592Z,57.20
2019-01-24T09:25:31.723Z,56.80
2019-01-24T09:26:31.847Z,58.60
2019-01-24T09:27:31.995Z,56.50
2019-01-24T09:28:32.156Z,57.20
2019-01-24T09:29:32.305Z,57.60
2019-01-24T09:30:32.449Z,56.60
2019-01-24T09:31:32.583Z,58.50
2019-01-24T09:32:32.714Z,56.70
2019-01-24T09:33:32.837Z,56.70
2019-01-24T09:34:32.972Z,58.90
2019-01-24T09:35:33.089Z,57.30
2019-01-24T09:36:33.243Z,57.20
2019-01-24T09:37:33.363Z,58.10
2019-01-24T09:38:33.554Z,58.20
2019-01-24T09:39:33.608Z,57.50
2019-01-24T09:40:33.784Z,59.50
2019-01-24T09:41:33.912Z,56.60
2019-01-24T09:42:34.044Z,57.50
2019-01-24T09:43:34.210Z,57.30
2019-01-24T09:44:34.365Z,57.30
2019-01-24T09:45:34.484Z,58.30
2019-01-24T09:46:34.609Z,58.60
2019-01-24T09:47:34.732Z,57.80
2019-01-24T09:48:34.950Z,58.00
2019-01-24T09:49:34.956Z,57.20
2019-01-24T09:50:35.079Z,56.30
2019-01-24T09:51:35.206Z,57.20
2019-01-24T09:52:35.327Z,57.80
2019-01-24T09:53:35.452Z,58.00
2019-01-24T09:54:35.582Z,57.10
2019-01-24T09:55:35.707Z,59.40
2019-01-24T09:56:35.826Z,58.10
2019-01-24T09:57:35.962Z,55.80
2019-01-24T09:58:36.085Z,56.50
2019-01-24T09:59:36.215Z,58.80
2019-01-24T10:00:36.349Z,57.00
2019-01-24T10:01:36.467Z,59.30
2019-01-24T10:02:36.595Z,57.90
2019-01-24T10:03:36.727Z,57.40
2019-01-24T10:04:36.855Z,58.10
2019-01-24T10:05:36.974Z,57.90
2019-01-24T10:06:37.102Z,58.50
2019-01-24T10:07:37.233Z,57.20
2019-01-24T10:08:37.365Z,56.80
2019-01-24T10:09:37.489Z,57.00
2019-01-24T10:10:37.611Z,56.80
2019-01-24T10:11:37.738Z,59.00
2019-01-24T10:12:37.865Z,59.10
2019-01-24T10:13:37.988Z,59.10
2019-01-24T10:14:38.137Z,59.10
2019-01-24T10:15:38.267Z,59.40
2019-01-24T10:16:38.417Z,57.90
2019-01-24T10:17:38.579Z,57.70
2019-01-24T10:18:38.702Z,57.90
2019-01-24T10:19:38.900Z,58.20
2019-01-24T10:20:38.952Z,57.10
2019-01-24T10:21:39.080Z,56.60
2019-01-24T10:22:39.199Z,58.30
2019-01-24T10:23:39.330Z,58.80
2019-01-24T10:24:39.499Z,56.80
2019-01-24T10:25:39.592Z,59.10
2019-01-24T10:26:39.725Z,58.40
2019-01-24T10:27:39.853Z,57.60
2019-01-24T10:28:39.992Z,57.60
2019-01-24T10:29:40.131Z,57.00
2019-01-24T10:30:43.002Z,58.30
2019-01-24T10:31:40.380Z,58.00
2019-01-24T10:32:40.516Z,56.20
2019-01-24T10:33:40.652Z,56.10
2019-01-24T10:34:40.776Z,55.50
2019-01-24T10:35:40.901Z,57.10
2019-01-24T10:36:43.145Z,58.10
2019-01-24T10:37:41.166Z,56.50
2019-01-24T10:38:41.290Z,56.90
2019-01-24T10:39:41.419Z,56.10
2019-01-24T10:40:41.545Z,55.10
2019-01-24T10:41:41.668Z,56.50
2019-01-24T10:42:41.798Z,56.80
2019-01-24T10:43:41.927Z,55.60
2019-01-24T10:44:42.060Z,56.80
2019-01-24T10:45:42.185Z,56.30
2019-01-24T10:46:42.308Z,55.30
2019-01-24T10:47:42.455Z,56.50
2019-01-24T10:48:42.579Z,56.90
2019-01-24T10:49:42.706Z,55.80
2019-01-24T10:50:42.828Z,56.00
2019-01-24T10:51:42.994Z,55.50
2019-01-24T10:52:43.120Z,56.90
2019-01-24T10:53:43.243Z,54.70
2019-01-24T10:54:44.195Z,54.20
2019-01-24T10:55:43.510Z,56.30
2019-01-24T10:56:43.636Z,56.50
2019-01-24T10:57:43.829Z,56.30
2019-01-24T10:58:43.829Z,56.20
2019-01-24T10:59:43.953Z,55.20
2019-01-24T11:00:44.090Z,55.20
2019-01-24T11:01:44.223Z,54.40
2019-01-24T11:02:44.344Z,57.00
2019-01-24T11:03:44.475Z,55.30
2019-01-24T11:04:44.600Z,55.70
2019-01-24T11:05:44.730Z,55.30
2019-01-24T11:06:50.038Z,55.90
2019-01-24T11:07:44.976Z,56.30
2019-01-24T11:08:45.102Z,51.60
2019-01-24T11:09:45.239Z,52.30
2019-01-24T11:10:45.362Z,51.70
2019-01-24T11:11:45.490Z,52.60
2019-01-24T11:12:45.611Z,52.40
2019-01-24T11:13:45.733Z,51.50
2019-01-24T11:14:45.860Z,52.10
2019-01-24T11:15:45.985Z,50.80
2019-01-24T11:16:46.108Z,52.10
2019-01-24T11:17:46.231Z,50.50
2019-01-24T11:18:46.360Z,52.10
2019-01-24T11:19:46.488Z,51.60
2019-01-24T11:20:46.614Z,51.40
2019-01-24T11:21:46.761Z,52.40
2019-01-24T11:22:46.878Z,51.40
2019-01-24T11:23:46.990Z,50.50
2019-01-24T11:24:47.123Z,52.70
2019-01-24T11:25:47.249Z,51.80
2019-01-24T11:26:47.371Z,51.20
2019-01-24T11:27:47.498Z,50.20
2019-01-24T11:28:47.626Z,49.60
2019-01-24T11:29:47.752Z,51.10
2019-01-24T11:30:47.878Z,49.10
2019-01-24T11:31:48.002Z,50.20
2019-01-24T11:32:48.132Z,51.10
2019-01-24T11:33:48.272Z,50.60
2019-01-24T11:34:48.396Z,50.70
2019-01-24T11:35:48.515Z,51.50
2019-01-24T11:36:48.629Z,47.50
2019-01-24T11:37:48.772Z,50.30
2019-01-24T11:38:48.904Z,50.00
2019-01-24T11:39:49.021Z,49.10
2019-01-24T11:40:49.158Z,48.40
2019-01-24T11:41:49.291Z,50.70
2019-01-24T11:42:49.410Z,49.90
2019-01-24T11:43:49.554Z,49.80
2019-01-24T11:44:49.680Z,51.70
2019-01-24T11:45:49.820Z,49.70
2019-01-24T11:46:49.932Z,50.00
2019-01-24T11:47:50.076Z,49.70
2019-01-24T11:48:50.173Z,50.00
2019-01-24T11:49:50.299Z,50.80
2019-01-24T11:50:51.181Z,49.90
2019-01-24T11:51:50.553Z,50.60
2019-01-24T11:52:50.683Z,50.10
2019-01-24T11:53:53.215Z,49.70
2019-01-24T11:54:50.954Z,49.90
2019-01-24T11:55:51.110Z,49.30
2019-01-24T11:56:51.205Z,50.10
2019-01-24T11:57:51.347Z,51.00
2019-01-24T11:58:51.465Z,52.10
2019-01-24T11:59:51.596Z,51.10
2019-01-24T12:00:51.724Z,50.70
2019-01-24T12:01:51.852Z,50.90
2019-01-24T12:02:51.979Z,51.50
2019-01-24T12:03:52.112Z,51.50
2019-01-24T12:04:52.237Z,51.90
2019-01-24T12:05:52.366Z,52.00
2019-01-24T12:06:52.487Z,50.40
2019-01-24T12:07:52.610Z,50.90
2019-01-24T12:08:52.735Z,50.20
2019-01-24T12:09:52.860Z,49.00
2019-01-24T12:10:52.992Z,50.30
2019-01-24T12:11:53.117Z,50.00
2019-01-24T12:12:53.243Z,51.20
2019-01-24T12:13:53.373Z,51.20
2019-01-24T12:14:53.500Z,51.00
2019-01-24T12:15:53.634Z,50.60
2019-01-24T12:16:53.768Z,51.00
2019-01-24T12:17:53.889Z,49.00
2019-01-24T12:18:54.014Z,49.50
2019-01-24T12:19:54.146Z,51.10
2019-01-24T12:20:54.261Z,50.70
2019-01-24T12:21:54.392Z,50.60
2019-01-24T12:22:54.515Z,49.70
2019-01-24T12:23:54.643Z,51.00
2019-01-24T12:24:54.767Z,51.40
2019-01-24T12:25:54.896Z,50.70
2019-01-24T12:26:55.019Z,49.30
2019-01-24T12:27:55.143Z,52.20
2019-01-24T12:28:55.267Z,51.10
2019-01-24T12:29:55.394Z,51.90
2019-01-24T12:30:55.520Z,51.60
2019-01-24T12:31:55.650Z,50.90
2019-01-24T12:32:55.774Z,50.80
2019-01-24T12:33:55.898Z,50.00
2019-01-24T12:34:56.029Z,51.10
2019-01-24T12:35:56.156Z,51.30
2019-01-24T12:36:56.295Z,51.50
2019-01-24T12:37:56.409Z,51.30
2019-01-24T12:38:56.539Z,49.10
2019-01-24T12:39:56.660Z,49.30
2019-01-24T12:40:56.813Z,50.00
2019-01-24T12:41:56.939Z,49.40
2019-01-24T12:42:57.056Z,49.90
2019-01-24T12:43:57.185Z,49.30
2019-01-24T12:44:57.312Z,50.50
2019-01-24T12:45:57.433Z,48.90
2019-01-24T12:46:57.560Z,50.00
2019-01-24T12:47:57.699Z,50.40
2019-01-24T12:48:57.841Z,49.70
2019-01-24T12:49:57.965Z,50.20
2019-01-24T12:50:58.098Z,50.50
2019-01-24T12:51:58.223Z,51.40
2019-01-24T12:52:58.348Z,50.70
2019-01-24T12:53:58.491Z,50.50
2019-01-24T12:54:58.618Z,49.50
2019-01-24T12:55:58.732Z,49.60
2019-01-24T12:56:58.878Z,49.70